Time;durP1;ratioP1;P1;durP2;ratioP2;P2;SDS_P1;SDS_P2;PMS_P1;PMS_P2;Temp;Humidity;BMP_temperature;BMP_pressure;BME280_temperature;BME280_humidity;BME280_pressure;Samples;Min_cycle;Max_cycle;Signal;HPM_P1;HPM_P2
2023/09/28 00:00:45;;;;;;;0.00;0.00;;;;;;;-145.06;100.00;56704.31;10384146;28;20025;-68
2023/09/28 00:05:46;;;;;;;0.10;0.10;;;;;;;-145.06;100.00;56675.94;10388257;28;20033;-67
2023/09/28 00:10:46;;;;;;;0.10;0.10;;;;;;;-145.06;100.00;56661.75;10389218;28;20488;-67
2023/09/28 00:15:46;;;;;;;0.07;0.07;;;;;;;-145.06;100.00;56598.91;10379217;28;20117;-67
2023/09/28 00:20:47;;;;;;;0.00;0.00;;;;;;;-145.06;100.00;56641.47;10387117;28;20018;-68
2023/09/28 00:25:48;;;;;;;0.10;0.10;;;;;;;-145.06;100.00;56590.81;10389521;28;20049;-67
2023/09/28 00:30:48;;;;;;;0.10;0.10;;;;;;;-145.06;100.00;56621.22;10385822;28;20060;-67
2023/09/28 00:35:48;;;;;;;0.10;0.10;;;;;;;-145.06;100.00;56592.84;10389258;28;20441;-68
2023/09/28 00:40:49;;;;;;;0.05;0.05;;;;;;;-145.06;100.00;56576.63;10382611;28;20044;-68
2023/09/28 00:45:49;;;;;;;0.10;0.10;;;;;;;-145.06;100.00;56572.56;10385658;28;20079;-68
2023/09/28 00:50:50;;;;;;;0.03;0.03;;;;;;;-145.06;100.00;56586.75;10387196;28;20426;-67
2023/09/28 00:55:53;;;;;;;0.10;0.10;;;;;;;-145.06;100.00;56574.59;10388174;28;20037;-68
2023/09/28 01:00:53;;;;;;;0.10;0.10;;;;;;;-145.06;100.00;56590.81;10396296;28;20025;-68
2023/09/28 01:05:54;;;;;;;0.00;0.00;;;;;;;-145.06;100.00;56590.81;10390380;28;20022;-68
2023/09/28 01:10:54;;;;;;;0.10;0.10;;;;;;;-145.06;100.00;56637.41;10392587;28;20032;-67
2023/09/28 01:15:55;;;;;;;0.00;0.00;;;;;;;-145.06;100.00;56611.06;10389063;28;20072;-67
2023/09/28 01:20:55;;;;;;;0.00;0.00;;;;;;;-145.06;100.00;56607.03;10395089;28;20092;-67
2023/09/28 01:25:56;;;;;;;0.10;0.10;;;;;;;-145.06;100.00;56611.06;10395525;28;20064;-67
2023/09/28 01:30:56;;;;;;;0.00;0.00;;;;;;;-145.06;100.00;56619.19;10398160;28;20049;-67
2023/09/28 01:35:56;;;;;;;0.10;0.10;;;;;;;-145.06;100.00;56619.19;10385999;28;20284;-67
2023/09/28 01:40:57;;;;;;;0.00;0.00;;;;;;;-145.06;100.00;56631.34;10390273;28;20058;-67
2023/09/28 01:45:58;;;;;;;0.10;0.10;;;;;;;-145.06;100.00;56623.25;10384997;28;20030;-67
2023/09/28 01:51:01;;;;;;;0.00;0.00;;;;;;;-145.06;100.00;56586.75;10392113;28;20489;-67
2023/09/28 01:56:02;;;;;;;0.10;0.10;;;;;;;-145.06;100.00;56590.81;10390540;28;20392;-66
2023/09/28 02:01:02;;;;;;;0.10;0.10;;;;;;;-145.06;100.00;56592.84;10379332;28;20113;-66
2023/09/28 02:06:04;;;;;;;0.10;0.10;;;;;;;-145.06;100.00;56590.81;10394792;28;20022;-66
2023/09/28 02:11:05;;;;;;;0.10;0.10;;;;;;;-145.06;100.00;56532.03;10370496;28;20033;-66
2023/09/28 02:16:09;;;;;;;0.00;0.00;;;;;;;-145.06;100.00;56542.19;10369642;28;20068;-66
2023/09/28 02:21:14;;;;;;;0.10;0.10;;;;;;;-145.06;100.00;56544.19;10383272;28;20029;-66
2023/09/28 02:26:14;;;;;;;0.00;0.00;;;;;;;-145.06;100.00;56523.94;10402827;28;20093;-66
2023/09/28 02:31:14;;;;;;;0.10;0.10;;;;;;;-145.06;100.00;56574.59;10380439;28;20026;-66
2023/09/28 02:36:15;;;;;;;0.03;0.03;;;;;;;-145.06;100.00;56560.41;10385719;28;20029;-66
2023/09/28 02:41:19;;;;;;;0.10;0.10;;;;;;;-145.06;100.00;56550.28;10390957;28;20030;-67
2023/09/28 02:46:20;;;;;;;0.00;0.00;;;;;;;-145.06;100.00;56534.06;10401971;28;20130;-66
2023/09/28 02:51:20;;;;;;;0.03;0.03;;;;;;;-145.06;100.00;56548.25;10377466;28;20101;-66
2023/09/28 02:56:21;;;;;;;0.00;0.00;;;;;;;-145.06;100.00;56532.03;10368411;28;20033;-66
2023/09/28 03:01:21;;;;;;;0.10;0.10;;;;;;;-145.06;100.00;56550.28;10380347;28;20366;-67
2023/09/28 03:06:22;;;;;;;0.10;0.10;;;;;;;-145.06;100.00;56576.63;10376408;28;20018;-66
2023/09/28 03:11:22;;;;;;;0.00;0.00;;;;;;;-145.06;100.00;56550.28;10399005;28;20408;-66
2023/09/28 03:16:22;;;;;;;0.00;0.00;;;;;;;-145.06;100.00;56540.16;10378265;28;20072;-67
2023/09/28 03:21:23;;;;;;;0.10;0.10;;;;;;;-145.06;100.00;56562.44;10367707;28;20033;-67
2023/09/28 03:26:23;;;;;;;0.10;0.10;;;;;;;-145.06;100.00;56560.41;10367843;28;20041;-67
2023/09/28 03:31:27;;;;;;;0.00;0.00;;;;;;;-145.06;100.00;56570.53;10367430;28;20037;-67
2023/09/28 03:36:30;;;;;;;0.10;0.10;;;;;;;-145.06;100.00;56607.03;10376716;28;20392;-66
2023/09/28 03:41:30;;;;;;;0.10;0.10;;;;;;;-145.06;100.00;56558.38;10380448;28;20088;-67
2023/09/28 03:46:30;;;;;;;0.10;0.10;;;;;;;-145.06;100.00;56574.59;10371422;28;20076;-67
2023/09/28 03:51:30;;;;;;;0.00;0.00;;;;;;;-145.06;100.00;56570.53;10388562;28;20025;-67
2023/09/28 03:56:31;;;;;;;0.00;0.00;;;;;;;-145.06;100.00;56550.28;10371848;28;20049;-66
2023/09/28 04:01:31;;;;;;;0.10;0.10;;;;;;;-145.06;100.00;56560.41;10381600;28;20029;-67
2023/09/28 04:06:31;;;;;;;0.10;0.10;;;;;;;-145.06;100.00;56578.66;10375850;28;20038;-67
2023/09/28 04:11:32;;;;;;;0.00;0.00;;;;;;;-145.06;100.00;56523.94;10366869;28;20029;-67
2023/09/28 04:16:32;;;;;;;0.10;0.10;;;;;;;-145.06;100.00;56562.44;10349672;28;20412;-67
2023/09/28 04:21:33;;;;;;;0.10;0.10;;;;;;;-145.06;100.00;56548.25;10369679;28;20025;-67
2023/09/28 04:26:34;;;;;;;0.10;0.10;;;;;;;-145.06;100.00;56580.69;10387875;28;20033;-67
2023/09/28 04:31:35;;;;;;;0.10;0.10;;;;;;;-145.06;100.00;56576.63;10383627;28;20047;-67
2023/09/28 04:36:38;;;;;;;0.10;0.10;;;;;;;-145.06;100.00;56546.22;10395752;28;20040;-66
2023/09/28 04:41:39;;;;;;;0.10;0.10;;;;;;;-145.06;100.00;56558.38;10379228;28;20104;-66
2023/09/28 04:46:39;;;;;;;0.10;0.10;;;;;;;-145.06;100.00;56566.50;10402173;28;20543;-66
2023/09/28 04:51:41;;;;;;;0.10;0.10;;;;;;;-145.06;100.00;56538.13;10381653;28;20045;-66
2023/09/28 04:56:41;;;;;;;0.10;0.10;;;;;;;-145.06;100.00;56542.19;10383060;28;20040;-67
2023/09/28 05:01:41;;;;;;;0.10;0.10;;;;;;;-145.06;100.00;56536.09;10388295;28;20037;-67
2023/09/28 05:06:42;;;;;;;0.10;0.10;;;;;;;-145.06;100.00;56556.38;10389187;28;20464;-67
2023/09/28 05:11:42;;;;;;;0.10;0.10;;;;;;;-145.06;100.00;56540.16;10390291;28;20373;-67
2023/09/28 05:16:43;;;;;;;0.10;0.10;;;;;;;-145.06;100.00;56519.88;10378371;28;20026;-66
2023/09/28 05:21:43;;;;;;;0.00;0.00;;;;;;;-145.06;100.00;56517.84;10381205;28;20025;-67
2023/09/28 05:26:43;;;;;;;0.10;0.10;;;;;;;-145.06;100.00;56505.69;10387976;28;20029;-67
2023/09/28 05:31:46;;;;;;;0.10;0.10;;;;;;;-145.06;100.00;56530.00;10377846;28;20030;-67
2023/09/28 05:36:47;;;;;;;0.00;0.00;;;;;;;-145.06;100.00;56576.63;10374393;28;20038;-67
2023/09/28 05:41:47;;;;;;;0.10;0.10;;;;;;;-145.06;100.00;56503.69;10380143;28;20104;-67
2023/09/28 05:46:47;;;;;;;0.00;0.00;;;;;;;-145.06;100.00;56536.09;10390643;28;20017;-67
2023/09/28 05:51:48;;;;;;;0.03;0.03;;;;;;;-145.06;100.00;56517.84;10377055;28;20021;-67
2023/09/28 05:56:48;;;;;;;0.10;0.10;;;;;;;-145.06;100.00;56515.84;10370740;28;20453;-66
2023/09/28 06:01:48;;;;;;;0.10;0.10;;;;;;;-145.06;100.00;56519.88;10387588;28;20441;-67
2023/09/28 06:06:50;;;;;;;0.00;0.00;;;;;;;-145.06;100.00;56521.91;10375321;28;20388;-67
2023/09/28 06:11:52;;;;;;;0.10;0.10;;;;;;;-145.06;100.00;56536.09;10384616;28;20014;-67
2023/09/28 06:16:52;;;;;;;0.10;0.10;;;;;;;-145.06;100.00;56554.34;10383099;28;20022;-67
2023/09/28 06:21:54;;;;;;;0.10;0.10;;;;;;;-145.06;100.00;56558.38;10384816;28;20124;-66
2023/09/28 06:26:54;;;;;;;0.00;0.00;;;;;;;-145.06;100.00;56578.66;10377439;28;20639;-67
2023/09/28 06:31:55;;;;;;;0.10;0.10;;;;;;;-145.06;100.00;56590.81;10383710;28;20025;-67
2023/09/28 06:36:55;;;;;;;0.10;0.10;;;;;;;-145.06;100.00;56584.72;10378340;28;20124;-66
2023/09/28 06:41:55;;;;;;;0.10;0.10;;;;;;;-145.06;100.00;56641.47;10383997;28;20022;-67
2023/09/28 06:46:57;;;;;;;0.00;0.00;;;;;;;-145.06;100.00;56619.19;10371961;28;20762;-67
2023/09/28 06:51:57;;;;;;;0.00;0.00;;;;;;;-145.06;100.00;56655.66;10384734;28;20311;-67
2023/09/28 06:56:57;;;;;;;0.10;0.10;;;;;;;-145.06;100.00;56708.34;10395277;28;20096;-67
2023/09/28 07:01:58;;;;;;;0.10;0.10;;;;;;;-145.06;100.00;56675.94;10386951;28;20021;-67
2023/09/28 07:06:58;;;;;;;0.10;0.10;;;;;;;-145.06;100.00;56898.84;10389889;28;20014;-66
2023/09/28 07:11:59;;;;;;;0.00;0.00;;;;;;;-145.06;100.00;56925.22;10390174;28;20051;-67
2023/09/28 07:16:59;;;;;;;0.00;0.00;;;;;;;-145.06;100.00;56850.22;10389795;28;20049;-67
2023/09/28 07:22:01;;;;;;;0.10;0.10;;;;;;;-145.06;100.00;56854.28;10382283;28;20283;-67
2023/09/28 07:27:01;;;;;;;0.00;0.00;;;;;;;-145.06;100.00;56809.69;10378101;28;20730;-67
2023/09/28 07:32:01;;;;;;;0.00;0.00;;;;;;;-145.06;100.00;56902.91;10374939;28;20033;-66
2023/09/28 07:37:01;;;;;;;0.00;0.00;;;;;;;-145.06;91.15;57223.16;10374914;28;20034;-67
2023/09/28 07:42:07;;;;;;;0.00;0.00;;;;;;;-145.06;83.96;57517.06;10384942;28;20045;-67
2023/09/28 07:47:08;;;;;;;0.10;0.10;;;;;;;-145.06;77.05;57721.78;10380551;28;20026;-67
2023/09/28 07:52:08;;;;;;;0.00;0.00;;;;;;;-145.06;72.11;57898.16;10386728;28;20025;-67
2023/09/28 07:57:09;;;;;;;0.10;0.10;;;;;;;-145.06;70.43;58013.69;10381683;28;20026;-67
2023/09/28 08:02:09;;;;;;;0.00;0.00;;;;;;;-145.06;67.24;58127.22;10380086;28;20327;-67
2023/09/28 08:07:10;;;;;;;0.10;0.10;;;;;;;-145.06;67.18;58175.88;10394887;28;20495;-68
2023/09/28 08:12:10;;;;;;;0.10;0.10;;;;;;;-145.06;63.73;58329.97;10396848;28;20115;-68
2023/09/28 08:17:12;;;;;;;0.10;0.10;;;;;;;-145.06;64.32;58321.84;10394500;28;20029;-67
2023/09/28 08:22:12;;;;;;;0.10;0.10;;;;;;;-145.06;65.05;58332.00;10405689;28;20026;-67
2023/09/28 08:27:13;;;;;;;0.07;0.07;;;;;;;-145.06;63.68;58354.28;10390139;28;20453;-68
2023/09/28 08:32:13;;;;;;;0.10;0.10;;;;;;;-145.06;62.73;58390.78;10401384;28;20269;-68
2023/09/28 08:37:13;;;;;;;0.00;0.00;;;;;;;-145.06;63.77;58370.50;10381972;28;20030;-67
2023/09/28 08:42:15;;;;;;;0.00;0.00;;;;;;;-145.06;63.79;58411.06;10402167;28;20036;-67
2023/09/28 08:47:16;;;;;;;0.10;0.10;;;;;;;-145.06;64.17;58348.22;10389619;28;20018;-66
2023/09/28 08:52:18;;;;;;;0.10;0.10;;;;;;;-145.06;62.71;58411.06;10395237;28;20322;-66
2023/09/28 08:57:18;;;;;;;0.10;0.10;;;;;;;-145.06;nan;58327.94;10383102;28;20026;-67
2023/09/28 09:02:18;;;;;;;0.10;0.10;;;;;;;-145.06;66.17;58319.81;10376694;28;20493;-66
2023/09/28 09:07:21;;;;;;;0.10;0.10;;;;;;;-145.06;65.24;58295.50;10392182;28;20021;-66
2023/09/28 09:12:22;;;;;;;0.10;0.10;;;;;;;-145.06;63.38;58297.53;10378184;28;20476;-66
2023/09/28 09:17:31;;;;;;;0.10;0.10;;;;;;;-145.06;64.43;58188.03;10391884;28;20036;-66
2023/09/28 09:22:32;;;;;;;0.03;0.03;;;;;;;-145.06;66.87;58204.25;10383297;28;20033;-66
2023/09/28 09:27:32;;;;;;;0.00;0.00;;;;;;;-145.06;65.94;58240.75;10380831;28;20072;-67
2023/09/28 09:32:34;;;;;;;0.00;0.00;;;;;;;-145.06;67.34;58214.41;10379508;28;20459;-66
2023/09/28 09:37:40;;;;;;;0.10;0.10;;;;;;;-145.06;69.05;58171.81;10393126;28;20073;-66
2023/09/28 09:42:41;;;;;;;0.10;0.10;;;;;;;-145.06;67.77;58194.13;10370956;28;20034;-66
2023/09/28 09:47:46;;;;;;;0.10;0.10;;;;;;;-145.06;68.16;58188.03;10384212;28;20045;-66
2023/09/28 09:52:46;;;;;;;0.10;0.10;;;;;;;-145.06;68.32;58204.25;10376214;28;20018;-66
2023/09/28 09:57:47;;;;;;;0.10;0.10;;;;;;;-145.06;68.26;58273.19;10376689;28;20461;-66
2023/09/28 10:02:53;;;;;;;0.00;0.00;;;;;;;-145.06;64.94;58301.56;10387672;28;20086;-66
2023/09/28 10:07:56;;;;;;;0.00;0.00;;;;;;;-145.06;66.30;58192.09;10386650;28;20090;-66
2023/09/28 10:12:58;;;;;;;0.10;0.10;;;;;;;-145.06;67.09;58214.41;10383165;28;20079;-66
2023/09/28 10:18:01;;;;;;;0.10;0.10;;;;;;;-145.06;69.26;58050.19;10403003;28;20108;-66
2023/09/28 10:23:13;;;;;;;0.00;0.00;;;;;;;-145.06;68.75;57975.19;10372645;28;20026;-66
2023/09/28 10:28:13;;;;;;;0.00;0.00;;;;;;;-145.06;74.70;57885.97;10390083;28;20128;-67
2023/09/28 10:33:16;;;;;;;0.05;0.05;;;;;;;-145.06;71.68;57954.91;10405777;28;20030;-66
2023/09/28 10:38:21;;;;;;;0.00;0.00;;;;;;;-145.06;72.90;57879.91;10375544;28;20014;-67
2023/09/28 10:43:32;;;;;;;0.10;0.10;;;;;;;-145.06;74.67;57898.16;10373440;28;20032;-66
2023/09/28 10:48:44;;;;;;;0.00;0.00;;;;;;;-145.06;78.52;57780.56;10368499;28;20049;-66
2023/09/28 10:53:51;;;;;;;0.00;0.00;;;;;;;-145.06;76.09;57813.00;10486324;28;20444;-67
2023/09/28 10:58:51;;;;;;;0.00;0.00;;;;;;;-145.06;75.81;57875.84;10463929;28;20032;-67
2023/09/28 11:03:54;;;;;;;0.10;0.10;;;;;;;-145.06;77.00;57762.31;10428796;28;20087;-67
2023/09/28 11:08:57;;;;;;;0.08;0.08;;;;;;;-145.06;76.90;57823.13;10430595;28;20025;-66
2023/09/28 11:14:00;;;;;;;0.00;0.00;;;;;;;-145.06;75.91;57940.72;10439055;28;20029;-66
2023/09/28 11:19:01;;;;;;;0.00;0.00;;;;;;;-145.06;72.53;58033.97;10442896;28;20021;-65
2023/09/28 11:24:04;;;;;;;0.00;0.00;;;;;;;-145.06;71.80;58040.06;10439037;28;20313;-65
2023/09/28 11:29:05;;;;;;;0.00;0.00;;;;;;;-145.06;69.36;57999.50;10441816;28;20394;-65
2023/09/28 11:34:05;;;;;;;0.00;0.00;;;;;;;-145.06;73.79;57847.47;10450436;28;20052;-67
2023/09/28 11:39:06;;;;;;;0.10;0.10;;;;;;;-145.06;71.61;57916.38;10452787;28;20048;-68
2023/09/28 11:44:07;;;;;;;0.00;0.00;;;;;;;-145.06;75.23;57934.63;10405771;28;20328;-68
2023/09/28 11:49:13;;;;;;;0.08;0.08;;;;;;;-145.06;75.50;57902.19;10439884;28;20036;-67
2023/09/28 11:54:16;;;;;;;0.10;0.10;;;;;;;-145.06;72.87;57977.22;10417511;28;20025;-66
2023/09/28 11:59:16;;;;;;;;;;;;;;;-145.06;74.59;57973.16;10442568;28;20039;-66
2023/09/28 12:04:17;;;;;;;0.00;0.00;;;;;;;-145.06;71.17;58036.00;10439294;28;19992;-66
2023/09/28 12:09:19;;;;;;;0.00;0.00;;;;;;;-145.06;71.98;57952.88;10417154;28;20401;-66
2023/09/28 12:14:19;;;;;;;0.00;0.00;;;;;;;-145.06;73.99;57841.38;10415181;28;20350;-66
2023/09/28 12:19:20;;;;;;;0.00;0.00;;;;;;;-145.06;73.75;57839.34;10418029;28;20478;-66
2023/09/28 12:24:20;;;;;;;0.10;0.10;;;;;;;-145.06;75.28;57784.63;10407390;28;20435;-67
2023/09/28 12:29:20;;;;;;;0.00;0.00;;;;;;;-145.06;77.53;57786.66;10404983;28;20013;-67
2023/09/28 12:34:21;;;;;;;0.00;0.00;;;;;;;-145.06;77.65;57758.28;10407612;28;20026;-67
2023/09/28 12:39:22;;;;;;;0.10;0.10;;;;;;;-145.06;76.73;57794.75;10405932;28;20009;-66
2023/09/28 12:44:23;;;;;;;0.10;0.10;;;;;;;-145.06;77.99;57738.00;10404461;28;20029;-66
2023/09/28 12:49:23;;;;;;;0.03;0.03;;;;;;;-145.06;76.21;57750.16;10408035;28;20025;-66
2023/09/28 12:54:23;;;;;;;0.00;0.00;;;;;;;-145.06;75.68;57786.66;10405630;28;20102;-66
2023/09/28 12:59:24;;;;;;;0.00;0.00;;;;;;;-145.06;75.76;57742.06;10405531;28;20018;-66
2023/09/28 13:04:24;;;;;;;0.00;0.00;;;;;;;-145.06;70.03;57851.53;10404695;28;20082;-66
2023/09/28 13:09:30;;;;;;;0.08;0.08;;;;;;;-145.06;72.27;57778.53;10405234;28;20017;-67
2023/09/28 13:14:31;;;;;;;0.00;0.00;;;;;;;-145.06;73.69;57746.09;10403698;28;20120;-67
2023/09/28 13:19:31;;;;;;;0.00;0.00;;;;;;;-145.06;77.52;57679.22;10406853;28;20395;-66
2023/09/28 13:24:32;;;;;;;0.00;0.00;;;;;;;-145.06;73.12;57731.91;10405091;28;20685;-66
2023/09/28 13:29:33;;;;;;;0.10;0.10;;;;;;;-145.06;75.88;57738.00;10405972;28;20399;-67
2023/09/28 13:34:33;;;;;;;0.00;0.00;;;;;;;-145.06;73.75;57725.84;10406296;28;20029;-67
2023/09/28 13:39:35;;;;;;;0.05;0.05;;;;;;;-145.06;77.11;57679.22;10407135;28;20378;-67
2023/09/28 13:44:35;;;;;;;0.00;0.00;;;;;;;-145.06;74.84;57715.69;10406386;28;20052;-67
2023/09/28 13:49:37;;;;;;;0.10;0.10;;;;;;;-145.06;73.14;57740.03;10406181;28;20477;-67
2023/09/28 13:54:37;;;;;;;0.10;0.10;;;;;;;-145.06;76.11;57673.13;10403883;28;20052;-67
2023/09/28 13:59:37;;;;;;;0.10;0.10;;;;;;;-145.06;78.69;57640.69;10403947;28;20056;-67
2023/09/28 14:04:38;;;;;;;0.00;0.00;;;;;;;-145.06;76.95;57679.22;10404774;28;20021;-67
2023/09/28 14:09:40;;;;;;;0.05;0.05;;;;;;;-145.06;77.22;57614.34;10404484;28;20386;-67
2023/09/28 14:14:41;;;;;;;0.00;0.00;;;;;;;-145.06;77.65;57630.56;10403825;28;20032;-67
2023/09/28 14:19:41;;;;;;;0.00;0.00;;;;;;;-145.06;78.29;57620.44;10404816;28;20023;-67
2023/09/28 14:24:42;;;;;;;0.00;0.00;;;;;;;-145.06;78.38;57583.94;10402687;28;20017;-67
2023/09/28 14:29:42;;;;;;;0.10;0.10;;;;;;;-145.06;78.76;57590.03;10400693;28;20017;-66
2023/09/28 14:34:42;;;;;;;0.00;0.00;;;;;;;-145.06;82.40;57531.25;10399269;28;20025;-67
2023/09/28 14:39:43;;;;;;;0.00;0.00;;;;;;;-145.06;81.46;57525.16;10399696;28;20487;-66
2023/09/28 14:44:43;;;;;;;0.00;0.00;;;;;;;-145.06;83.14;57494.75;10402529;28;20021;-67
2023/09/28 14:49:46;;;;;;;0.10;0.10;;;;;;;-145.06;81.84;57549.47;10399908;28;20028;-66
2023/09/28 14:54:46;;;;;;;0.00;0.00;;;;;;;-145.06;82.45;57500.84;10400684;28;20436;-66
2023/09/28 14:59:47;;;;;;;0.10;0.10;;;;;;;-145.06;83.53;57498.81;10400811;28;20017;-66
2023/09/28 15:04:47;;;;;;;0.00;0.00;;;;;;;-145.06;83.69;57480.56;10399905;28;20030;-67
2023/09/28 15:09:48;;;;;;;0.00;0.00;;;;;;;-145.06;85.58;57506.91;10401692;28;20160;-67
2023/09/28 15:14:48;;;;;;;0.00;0.00;;;;;;;-145.06;84.70;57504.88;10400176;28;20040;-67
2023/09/28 15:19:48;;;;;;;0.00;0.00;;;;;;;-145.06;84.90;57498.81;10399917;28;20024;-67
2023/09/28 15:24:50;;;;;;;0.00;0.00;;;;;;;-145.06;85.01;57444.06;10398991;28;20025;-67
2023/09/28 15:29:51;;;;;;;0.10;0.10;;;;;;;-145.06;85.18;57429.88;10400777;28;20066;-67
2023/09/28 15:34:51;;;;;;;0.00;0.00;;;;;;;-145.06;87.38;57383.28;10401225;28;20087;-67
2023/09/28 15:39:51;;;;;;;0.00;0.00;;;;;;;-145.06;86.58;57385.28;10407916;28;20020;-66
2023/09/28 15:44:52;;;;;;;0.00;0.00;;;;;;;-145.06;87.61;57381.25;10409293;28;20017;-67
2023/09/28 15:49:53;;;;;;;0.00;0.00;;;;;;;-145.06;89.04;57350.84;10406805;28;20025;-67
2023/09/28 15:54:53;;;;;;;0.00;0.00;;;;;;;-145.06;89.53;57324.50;10408953;28;20033;-66
2023/09/28 15:59:53;;;;;;;0.00;0.00;;;;;;;-145.06;90.78;57312.31;10409808;28;20021;-66
2023/09/28 16:04:54;;;;;;;0.00;0.00;;;;;;;-145.06;92.36;57285.97;10409455;28;20024;-67
2023/09/28 16:09:56;;;;;;;0.00;0.00;;;;;;;-145.06;94.59;57221.13;10408967;28;20359;-67
2023/09/28 16:14:57;;;;;;;0.10;0.10;;;;;;;-145.06;94.91;57267.72;10400007;28;20025;-68
2023/09/28 16:19:57;;;;;;;0.00;0.00;;;;;;;-145.06;96.79;57206.94;10404871;28;20021;-66
2023/09/28 16:24:57;;;;;;;0.03;0.03;;;;;;;-145.06;99.11;57186.66;10400779;28;20021;-67
2023/09/28 16:29:57;;;;;;;0.00;0.00;;;;;;;-145.06;100.00;57154.22;10402765;28;20340;-67
2023/09/28 16:34:58;;;;;;;0.10;0.10;;;;;;;-145.06;100.00;57075.19;10395211;28;20029;-67
2023/09/28 16:39:58;;;;;;;0.00;0.00;;;;;;;-145.06;100.00;57081.25;10395315;28;20021;-68
2023/09/28 16:44:58;;;;;;;0.00;0.00;;;;;;;-145.06;100.00;57061.00;10398584;28;20024;-68
2023/09/28 16:49:59;;;;;;;0.00;0.00;;;;;;;-145.06;100.00;57050.88;10399861;28;20095;-68
2023/09/28 16:54:59;;;;;;;0.00;0.00;;;;;;;-145.06;100.00;56965.75;10401125;28;20021;-68
2023/09/28 17:00:00;;;;;;;0.10;0.10;;;;;;;-145.06;100.00;56917.09;10398997;28;20022;-68
2023/09/28 17:05:00;;;;;;;0.00;0.00;;;;;;;-145.06;100.00;56888.72;10397524;28;20021;-68
2023/09/28 17:10:00;;;;;;;0.00;0.00;;;;;;;-145.06;100.00;56868.47;10402128;28;20017;-68
2023/09/28 17:15:01;;;;;;;0.00;0.00;;;;;;;-145.06;100.00;56880.63;10398709;28;20030;-68
2023/09/28 17:20:01;;;;;;;0.00;0.00;;;;;;;-145.06;100.00;56844.13;10401645;28;20143;-68
2023/09/28 17:25:02;;;;;;;0.00;0.00;;;;;;;-145.06;100.00;56805.63;10401197;28;20636;-67
2023/09/28 17:30:04;;;;;;;0.00;0.00;;;;;;;-145.06;100.00;56811.72;10400278;28;20032;-67
2023/09/28 17:35:05;;;;;;;0.00;0.00;;;;;;;-145.06;100.00;56793.47;10399514;28;20036;-67
2023/09/28 17:40:09;;;;;;;0.00;0.00;;;;;;;-145.06;100.00;56805.63;10399259;28;20040;-67
2023/09/28 17:45:09;;;;;;;0.00;0.00;;;;;;;-145.06;100.00;56773.19;10399378;28;20111;-67
2023/09/28 17:50:10;;;;;;;0.10;0.10;;;;;;;-145.06;100.00;56742.81;10401113;28;20090;-67
2023/09/28 17:55:10;;;;;;;0.10;0.10;;;;;;;-145.06;100.00;56757.00;10399897;28;20053;-67
2023/09/28 18:00:11;;;;;;;0.00;0.00;;;;;;;-145.06;100.00;56746.84;10398393;28;20530;-67
2023/09/28 18:05:11;;;;;;;0.10;0.10;;;;;;;-145.06;100.00;56700.25;10398431;28;20046;-67
2023/09/28 18:10:14;;;;;;;0.10;0.10;;;;;;;-145.06;100.00;56700.25;10403309;28;20052;-67
2023/09/28 18:15:16;;;;;;;0.00;0.00;;;;;;;-145.06;100.00;56712.41;10396639;28;20022;-67
2023/09/28 18:20:17;;;;;;;0.00;0.00;;;;;;;-145.06;100.00;56688.09;10401836;28;20505;-67
2023/09/28 18:25:17;;;;;;;0.00;0.00;;;;;;;-145.06;100.00;56702.28;10399921;28;20018;-67
2023/09/28 18:30:18;;;;;;;0.10;0.10;;;;;;;-145.06;100.00;56688.09;10400623;28;20014;-68
2023/09/28 18:35:18;;;;;;;0.10;0.10;;;;;;;-145.06;100.00;56645.53;10409428;28;20604;-67
2023/09/28 18:40:18;;;;;;;0.10;0.10;;;;;;;-145.06;100.00;56625.25;10402915;28;20485;-68
2023/09/28 18:45:19;;;;;;;0.00;0.00;;;;;;;-145.06;100.00;56671.88;10417874;28;20536;-69
2023/09/28 18:50:19;;;;;;;0.00;0.00;;;;;;;-145.06;100.00;56625.25;10412465;28;20546;-69
2023/09/28 18:55:20;;;;;;;0.10;0.10;;;;;;;-145.06;100.00;56613.09;10416390;28;20029;-69
2023/09/28 19:00:21;;;;;;;0.00;0.00;;;;;;;-145.06;100.00;56621.22;10421093;28;20017;-68
2023/09/28 19:05:21;;;;;;;0.10;0.10;;;;;;;-145.06;100.00;56609.06;10405256;28;20661;-66
2023/09/28 19:10:21;;;;;;;0.00;0.00;;;;;;;-145.06;100.00;56605.00;10404527;28;20017;-66
2023/09/28 19:15:22;;;;;;;0.10;0.10;;;;;;;-145.06;100.00;56592.84;10407508;28;20162;-68
2023/09/28 19:20:22;;;;;;;0.00;0.00;;;;;;;-145.06;100.00;56594.88;10414151;28;20025;-68
2023/09/28 19:25:22;;;;;;;0.10;0.10;;;;;;;-145.06;100.00;56607.03;10422758;28;20099;-66
2023/09/28 19:30:22;;;;;;;0.08;0.08;;;;;;;-145.06;100.00;56598.91;10421095;28;20013;-67
2023/09/28 19:35:23;;;;;;;0.00;0.00;;;;;;;-145.06;100.00;56602.97;10410219;28;20108;-65
2023/09/28 19:40:23;;;;;;;0.00;0.00;;;;;;;-145.06;100.00;56590.81;10417448;28;20108;-66
2023/09/28 19:45:24;;;;;;;0.10;0.10;;;;;;;-145.06;100.00;56605.00;10409054;28;20385;-66
2023/09/28 19:50:24;;;;;;;0.00;0.00;;;;;;;-145.06;100.00;56605.00;10417566;28;20338;-66
2023/09/28 19:55:24;;;;;;;0.10;0.10;;;;;;;-145.06;100.00;56560.41;10411188;28;20029;-65
2023/09/28 20:00:24;;;;;;;0.00;0.00;;;;;;;-145.06;100.00;56542.19;10417864;28;20009;-66
2023/09/28 20:05:26;;;;;;;0.00;0.00;;;;;;;-145.06;100.00;56542.19;10419878;28;20021;-66
2023/09/28 20:10:26;;;;;;;0.10;0.10;;;;;;;-145.06;100.00;56528.00;10426146;28;20024;-65
2023/09/28 20:15:27;;;;;;;0.10;0.10;;;;;;;-145.06;100.00;56521.91;10419159;28;20044;-66
2023/09/28 20:20:27;;;;;;;0.10;0.10;;;;;;;-145.06;100.00;56546.22;10412281;28;20080;-66
2023/09/28 20:25:27;;;;;;;0.10;0.10;;;;;;;-145.06;100.00;56528.00;10404465;28;20081;-67
2023/09/28 20:30:28;;;;;;;0.00;0.00;;;;;;;-145.06;100.00;56521.91;10407427;28;20068;-67
2023/09/28 20:35:28;;;;;;;0.10;0.10;;;;;;;-145.06;100.00;56530.00;10407426;28;20541;-66
2023/09/28 20:40:28;;;;;;;0.10;0.10;;;;;;;-145.06;100.00;56544.19;10413211;28;20381;-66
2023/09/28 20:45:30;;;;;;;0.00;0.00;;;;;;;-145.06;100.00;56538.13;10409802;28;20335;-66
2023/09/28 20:50:30;;;;;;;0.10;0.10;;;;;;;-145.06;100.00;56558.38;10407590;28;20090;-66
2023/09/28 20:55:31;;;;;;;0.10;0.10;;;;;;;-145.06;100.00;56538.13;10413011;28;20095;-66
2023/09/28 21:00:34;;;;;;;0.10;0.10;;;;;;;-145.06;100.00;56534.06;10417757;28;20091;-66
2023/09/28 21:05:35;;;;;;;0.00;0.00;;;;;;;-145.06;100.00;56542.19;10412461;28;20021;-66
2023/09/28 21:10:36;;;;;;;0.00;0.00;;;;;;;-145.06;100.00;56554.34;10410860;28;20035;-66
2023/09/28 21:15:37;;;;;;;0.08;0.08;;;;;;;-145.06;100.00;56542.19;10417659;28;20025;-67
2023/09/28 21:20:37;;;;;;;0.00;0.00;;;;;;;-145.06;100.00;56511.78;10417517;28;20585;-67
2023/09/28 21:25:38;;;;;;;0.00;0.00;;;;;;;-145.06;100.00;56521.91;10417826;28;20029;-66
2023/09/28 21:30:38;;;;;;;0.10;0.10;;;;;;;-145.06;100.00;56528.00;10414012;28;20363;-67
2023/09/28 21:35:39;;;;;;;0.13;0.13;;;;;;;-145.06;100.00;56525.97;10409595;28;20045;-67
2023/09/28 21:40:39;;;;;;;0.10;0.10;;;;;;;-145.06;100.00;56534.06;10411301;28;20025;-66
2023/09/28 21:45:40;;;;;;;0.10;0.10;;;;;;;-145.06;100.00;56493.53;10414685;28;20116;-66
2023/09/28 21:50:40;;;;;;;0.00;0.00;;;;;;;-145.06;100.00;56534.06;10411421;28;20387;-66
2023/09/28 21:55:40;;;;;;;0.10;0.10;;;;;;;-145.06;100.00;56546.22;10414224;28;20083;-67
2023/09/28 22:00:42;;;;;;;0.10;0.10;;;;;;;-145.06;100.00;56544.19;10403501;28;20025;-66
2023/09/28 22:05:42;;;;;;;0.10;0.10;;;;;;;-145.06;100.00;56521.91;10411252;28;20060;-67
2023/09/28 22:10:43;;;;;;;0.10;0.10;;;;;;;-145.06;100.00;56556.38;10414006;28;20096;-66
2023/09/28 22:15:45;;;;;;;0.10;0.10;;;;;;;-145.06;100.00;56530.00;10413255;28;20025;-66
2023/09/28 22:20:45;;;;;;;0.10;0.10;;;;;;;-145.06;100.00;56525.97;10410128;28;20112;-67
2023/09/28 22:25:46;;;;;;;0.00;0.00;;;;;;;-145.06;100.00;56544.19;10408113;28;20479;-67
2023/09/28 22:30:46;;;;;;;0.10;0.10;;;;;;;-145.06;100.00;56572.56;10414408;28;20013;-67
2023/09/28 22:35:46;;;;;;;0.10;0.10;;;;;;;-145.06;100.00;56584.72;10411579;28;20395;-66